Time;durP1;ratioP1;P1;durP2;ratioP2;P2;SDS_P1;SDS_P2;PMS_P1;PMS_P2;Temp;Humidity;BMP_temperature;BMP_pressure;BME280_temperature;BME280_humidity;BME280_pressure;Samples;Min_cycle;Max_cycle;Signal;HPM_P1;HPM_P2
2022/12/18 00:01:21;;;;;;;48.23;16.60;;;-6.70;99.90;;;;;;5096316;28;20070;-79
2022/12/18 00:03:47;;;;;;;43.93;15.80;;;-6.70;99.90;;;;;;5109879;28;20059;-74
2022/12/18 00:06:14;;;;;;;43.27;15.03;;;-6.70;99.90;;;;;;5116452;28;20051;-73
2022/12/18 00:08:41;;;;;;;50.40;17.87;;;-6.70;99.90;;;;;;5116406;28;20035;-73
2022/12/18 00:11:08;;;;;;;46.37;16.07;;;-6.70;99.90;;;;;;5115274;28;20036;-74
2022/12/18 00:13:34;;;;;;;40.33;16.10;;;-6.70;99.90;;;;;;5114700;28;20035;-74
2022/12/18 00:16:12;;;;;;;43.63;16.30;;;-6.70;99.90;;;;;;5116788;28;20466;-74
2022/12/18 00:18:38;;;;;;;39.30;15.87;;;-6.70;99.90;;;;;;5114260;28;20134;-74
2022/12/18 00:21:07;;;;;;;41.93;15.20;;;-6.80;99.90;;;;;;5115138;28;20109;-74
2022/12/18 00:23:34;;;;;;;40.60;15.83;;;-6.80;99.90;;;;;;5114662;28;20019;-74
2022/12/18 00:26:01;;;;;;;37.83;15.53;;;-6.80;99.90;;;;;;5115085;28;20475;-74
2022/12/18 00:28:27;;;;;;;43.60;16.40;;;-6.80;99.90;;;;;;5114653;28;20020;-74
2022/12/18 00:31:04;;;;;;;43.57;16.53;;;-6.80;99.90;;;;;;5115032;28;20028;-73
2022/12/18 00:33:29;;;;;;;44.17;16.10;;;-6.80;99.90;;;;;;5115340;28;20028;-74
2022/12/18 00:36:09;;;;;;;37.40;15.13;;;-6.80;99.90;;;;;;5114972;28;20115;-73
2022/12/18 00:38:35;;;;;;;45.37;16.10;;;-6.80;99.90;;;;;;5114735;28;20027;-73
2022/12/18 00:41:01;;;;;;;48.03;15.00;;;-6.90;99.90;;;;;;5097386;28;20024;-72
2022/12/18 00:43:27;;;;;;;38.67;15.03;;;-6.90;99.90;;;;;;5093941;28;20461;-74
2022/12/18 00:45:53;;;;;;;42.60;15.47;;;-6.80;99.90;;;;;;5094499;28;20054;-73
2022/12/18 00:48:19;;;;;;;37.47;14.87;;;-6.90;99.90;;;;;;5095509;28;20075;-73
2022/12/18 00:50:44;;;;;;;40.33;14.53;;;-6.80;99.90;;;;;;5093460;28;20036;-73
2022/12/18 00:53:10;;;;;;;33.00;14.07;;;-6.80;99.90;;;;;;5094127;28;20034;-74
2022/12/18 00:55:38;;;;;;;42.03;17.00;;;-6.80;99.90;;;;;;5093644;28;20032;-74
2022/12/18 00:58:04;;;;;;;37.87;16.57;;;-6.80;99.90;;;;;;5094083;28;20020;-74
2022/12/18 01:00:29;;;;;;;39.30;15.00;;;-6.80;99.90;;;;;;5095075;28;20028;-73
2022/12/18 01:02:55;;;;;;;34.27;14.60;;;-6.80;99.90;;;;;;5093331;28;20020;-73
2022/12/18 01:05:21;;;;;;;39.33;15.13;;;-6.70;99.90;;;;;;5094915;28;20027;-73
2022/12/18 01:07:46;;;;;;;43.30;15.90;;;-6.70;99.90;;;;;;5093375;28;20020;-73
2022/12/18 01:10:13;;;;;;;44.27;17.00;;;-6.70;99.90;;;;;;5093879;28;20101;-74
2022/12/18 01:12:39;;;;;;;36.50;15.00;;;-6.70;99.90;;;;;;5093732;28;20374;-74
2022/12/18 01:15:06;;;;;;;41.40;15.47;;;-6.70;99.90;;;;;;5093381;28;20040;-74
2022/12/18 01:17:32;;;;;;;41.23;15.97;;;-6.80;99.90;;;;;;5093007;28;20516;-73
2022/12/18 01:19:58;;;;;;;41.30;17.27;;;-6.80;99.90;;;;;;5093529;28;20027;-74
2022/12/18 01:22:23;;;;;;;40.43;14.83;;;-7.00;99.90;;;;;;5093128;28;20028;-76
2022/12/18 01:24:49;;;;;;;41.37;14.80;;;-6.90;99.90;;;;;;5093558;28;20477;-72
2022/12/18 01:27:15;;;;;;;39.83;15.20;;;-6.90;99.90;;;;;;5093632;28;20039;-72
2022/12/18 01:29:40;;;;;;;37.53;14.27;;;-6.90;99.90;;;;;;5092739;28;20053;-72
2022/12/18 01:32:06;;;;;;;37.23;14.70;;;-6.90;99.90;;;;;;5093336;28;20081;-72
2022/12/18 01:34:32;;;;;;;38.20;15.23;;;-6.90;99.90;;;;;;5094116;28;20032;-72
2022/12/18 01:36:57;;;;;;;42.23;15.47;;;-6.80;99.90;;;;;;5093392;28;20020;-72
2022/12/18 01:39:23;;;;;;;40.13;15.20;;;-6.80;99.90;;;;;;5093296;28;20508;-72
2022/12/18 01:42:04;;;;;;;36.63;15.53;;;-6.80;99.90;;;;;;5111496;28;20035;-72
2022/12/18 01:44:57;;;;;;;42.10;15.60;;;-6.80;99.90;;;;;;5113008;28;20027;-75
2022/12/18 01:47:28;;;;;;;42.93;15.87;;;-6.90;99.90;;;;;;5113347;28;20035;-75
2022/12/18 01:49:56;;;;;;;40.47;15.38;;;-6.80;99.90;;;;;;5113336;28;20024;-75
2022/12/18 01:52:24;;;;;;;44.37;16.53;;;-6.80;99.90;;;;;;5113267;28;20038;-75
2022/12/18 01:54:52;;;;;;;38.23;15.73;;;-6.70;99.90;;;;;;5112755;28;20364;-72
2022/12/18 01:57:17;;;;;;;45.37;15.83;;;-6.80;99.90;;;;;;5113263;28;20033;-72
2022/12/18 01:59:45;;;;;;;40.47;15.60;;;-6.80;99.90;;;;;;5112717;28;20400;-72
2022/12/18 02:02:11;;;;;;;49.30;17.37;;;-6.90;99.90;;;;;;5113275;28;20028;-72
2022/12/18 02:04:37;;;;;;;40.57;15.60;;;-7.00;99.90;;;;;;5113722;28;20366;-72
2022/12/18 02:07:30;;;;;;;41.00;15.90;;;-7.00;99.90;;;;;;5113102;28;20024;-72
2022/12/18 02:10:15;;;;;;;34.13;14.53;;;-7.00;99.90;;;;;;5113359;28;20409;-74
2022/12/18 02:13:03;;;;;;;37.43;15.13;;;-6.90;99.90;;;;;;5112483;28;20027;-74
2022/12/18 02:15:42;;;;;;;38.07;15.37;;;-6.90;99.90;;;;;;5112938;28;20039;-75
2022/12/18 02:18:26;;;;;;;42.97;14.83;;;-6.90;99.90;;;;;;5112482;28;20464;-74
2022/12/18 02:20:51;;;;;;;40.07;15.33;;;-7.00;99.90;;;;;;5106123;28;20381;-74
2022/12/18 02:23:51;;;;;;;40.37;15.60;;;-7.00;99.90;;;;;;5092374;28;20028;-74
2022/12/18 02:26:25;;;;;;;37.93;14.53;;;-7.00;99.90;;;;;;5093750;28;20063;-74
2022/12/18 02:29:03;;;;;;;39.13;14.43;;;-7.10;99.90;;;;;;5092780;28;20026;-74
2022/12/18 02:31:35;;;;;;;36.13;13.63;;;-7.00;99.90;;;;;;5092650;28;20031;-75
2022/12/18 02:34:03;;;;;;;34.17;12.20;;;-7.00;99.90;;;;;;5093300;28;20032;-74
2022/12/18 02:36:32;;;;;;;39.90;15.33;;;-7.00;99.90;;;;;;5091703;28;20032;-75
2022/12/18 02:38:59;;;;;;;44.47;16.70;;;-7.00;99.90;;;;;;5092129;28;20030;-74
2022/12/18 02:41:25;;;;;;;43.60;15.37;;;-7.10;99.90;;;;;;5093158;28;20528;-74
2022/12/18 02:44:01;;;;;;;37.30;14.87;;;-7.10;99.90;;;;;;5091478;28;20028;-74
2022/12/18 02:46:37;;;;;;;36.13;14.97;;;-7.10;99.90;;;;;;5093393;28;20077;-74
2022/12/18 02:49:14;;;;;;;40.97;15.27;;;-7.10;99.90;;;;;;5092975;28;20469;-74
2022/12/18 02:51:46;;;;;;;39.87;15.40;;;-7.10;99.90;;;;;;5092392;28;20032;-74
2022/12/18 02:54:35;;;;;;;42.33;15.60;;;-7.20;99.90;;;;;;5093097;28;20458;-73
2022/12/18 02:57:13;;;;;;;38.87;14.80;;;-7.10;99.90;;;;;;5093420;28;20377;-74
2022/12/18 02:59:56;;;;;;;36.37;14.03;;;-7.00;99.90;;;;;;5091373;28;20024;-74
2022/12/18 03:02:35;;;;;;;39.17;14.53;;;-7.00;99.90;;;;;;5091933;28;20028;-74
2022/12/18 03:05:12;;;;;;;38.53;14.60;;;-7.00;99.90;;;;;;5091777;28;20487;-74
2022/12/18 03:07:58;;;;;;;46.80;16.63;;;-7.00;99.90;;;;;;5092836;28;20024;-74
2022/12/18 03:10:30;;;;;;;39.47;14.37;;;-6.90;99.90;;;;;;5091705;28;20034;-74
2022/12/18 03:13:01;;;;;;;;;;;-6.90;99.90;;;;;;5092001;28;20034;-75
2022/12/18 03:15:46;;;;;;;34.90;13.17;;;-6.90;99.90;;;;;;5092954;28;19915;-74
2022/12/18 03:18:45;;;;;;;37.73;14.83;;;-7.00;99.90;;;;;;5092389;28;20493;-74
2022/12/18 03:21:13;;;;;;;41.73;13.83;;;-7.10;99.90;;;;;;5091554;28;20373;-74
2022/12/18 03:23:44;;;;;;;30.40;12.00;;;-7.10;99.90;;;;;;5091987;28;20031;-75
2022/12/18 03:26:14;;;;;;;39.97;14.00;;;-7.10;99.90;;;;;;5093466;28;20115;-74
2022/12/18 03:28:45;;;;;;;40.40;15.47;;;-7.10;99.90;;;;;;5095388;28;20068;-74
2022/12/18 03:31:13;;;;;;;33.37;14.17;;;-7.10;99.90;;;;;;5095820;28;20039;-74
2022/12/18 03:33:58;;;;;;;43.00;15.43;;;-7.20;99.90;;;;;;5095175;28;20028;-74
2022/12/18 03:36:24;;;;;;;39.80;14.47;;;-7.30;99.90;;;;;;5095660;28;20377;-74
2022/12/18 03:38:50;;;;;;;38.10;15.37;;;-7.30;99.90;;;;;;5095091;28;20020;-74
2022/12/18 03:41:31;;;;;;;41.53;16.27;;;-7.30;99.90;;;;;;5095611;28;20448;-74
2022/12/18 03:44:19;;;;;;;37.28;14.10;;;-7.30;99.90;;;;;;5095244;28;20032;-74
2022/12/18 03:46:58;;;;;;;38.37;14.10;;;-7.40;99.90;;;;;;5096443;28;20032;-74
2022/12/18 03:49:39;;;;;;;36.47;14.27;;;-7.40;99.90;;;;;;5095556;28;20050;-74
2022/12/18 03:52:07;;;;;;;42.90;14.43;;;-7.40;99.90;;;;;;5095550;28;20118;-74
2022/12/18 03:54:34;;;;;;;38.23;15.47;;;-7.40;99.90;;;;;;5094389;28;20434;-75
2022/12/18 03:57:06;;;;;;;38.60;15.43;;;-7.30;99.90;;;;;;5096480;28;20028;-74
2022/12/18 03:59:33;;;;;;;39.77;14.20;;;-7.40;99.90;;;;;;5095304;28;20028;-75
2022/12/18 04:02:01;;;;;;;47.30;16.27;;;-7.40;99.90;;;;;;5095127;28;20032;-74
2022/12/18 04:04:28;;;;;;;42.57;15.67;;;-7.40;99.90;;;;;;5095066;28;20028;-74
2022/12/18 04:06:54;;;;;;;40.37;14.80;;;-7.40;99.90;;;;;;5094576;28;20028;-74
2022/12/18 04:09:21;;;;;;;42.23;16.30;;;-7.40;99.90;;;;;;5095128;28;20081;-74
2022/12/18 04:11:47;;;;;;;48.50;16.87;;;-7.40;99.90;;;;;;5094052;28;20028;-74
2022/12/18 04:14:14;;;;;;;36.00;15.20;;;-7.50;99.90;;;;;;5095677;28;20490;-74
2022/12/18 04:16:39;;;;;;;44.97;15.03;;;-7.50;99.90;;;;;;5094065;28;20056;-75
2022/12/18 04:19:05;;;;;;;39.13;13.43;;;-7.60;99.90;;;;;;5094787;28;20028;-74
2022/12/18 04:21:31;;;;;;;46.03;15.93;;;-7.60;99.90;;;;;;5095777;28;20028;-74
2022/12/18 04:23:56;;;;;;;42.97;14.77;;;-7.60;99.90;;;;;;5094121;28;20025;-73
2022/12/18 04:26:22;;;;;;;35.97;14.70;;;-7.70;99.90;;;;;;5095905;28;20383;-74
2022/12/18 04:28:48;;;;;;;37.30;14.57;;;-7.70;99.90;;;;;;5094093;28;20115;-73
2022/12/18 04:31:14;;;;;;;34.70;14.07;;;-7.60;99.90;;;;;;5099517;28;20111;-74
2022/12/18 04:33:39;;;;;;;42.73;15.43;;;-7.60;99.90;;;;;;5107047;28;20035;-75
2022/12/18 04:36:05;;;;;;;42.53;15.23;;;-7.50;99.90;;;;;;5099040;28;20020;-74
2022/12/18 04:38:31;;;;;;;47.57;16.20;;;-7.60;99.90;;;;;;5112065;28;20472;-74
2022/12/18 04:40:56;;;;;;;41.00;15.07;;;-7.60;99.90;;;;;;5114220;28;20028;-74
2022/12/18 04:43:22;;;;;;;39.07;16.17;;;-7.60;99.90;;;;;;5107847;28;20485;-74
2022/12/18 04:45:47;;;;;;;38.80;14.53;;;-7.60;99.90;;;;;;5115494;28;20070;-74
2022/12/18 04:48:13;;;;;;;36.60;14.73;;;-7.60;99.90;;;;;;5105582;28;20106;-74
2022/12/18 04:50:38;;;;;;;34.80;14.80;;;-7.50;99.90;;;;;;5113885;28;20028;-74
2022/12/18 04:53:04;;;;;;;41.53;15.73;;;-7.60;99.90;;;;;;5106292;28;20024;-74
2022/12/18 04:55:30;;;;;;;35.40;14.27;;;-7.60;99.90;;;;;;5102048;28;20090;-74
2022/12/18 04:57:55;;;;;;;38.63;15.67;;;-7.70;99.90;;;;;;5113554;28;20042;-74
2022/12/18 05:00:21;;;;;;;44.57;16.90;;;-7.70;99.90;;;;;;5114351;28;20024;-74
2022/12/18 05:02:47;;;;;;;42.33;14.63;;;-7.70;99.90;;;;;;5113868;28;20024;-74
2022/12/18 05:05:13;;;;;;;52.53;16.60;;;-7.60;99.90;;;;;;5114147;28;20372;-74
2022/12/18 05:07:39;;;;;;;49.77;17.13;;;-7.60;99.90;;;;;;5113699;28;20477;-78
2022/12/18 05:10:05;;;;;;;43.53;15.57;;;-7.60;99.90;;;;;;5105366;28;20028;-75
2022/12/18 05:12:31;;;;;;;48.10;16.53;;;-7.60;99.90;;;;;;5093726;28;20190;-74
2022/12/18 05:14:56;;;;;;;37.30;14.83;;;-7.60;99.90;;;;;;5093230;28;20853;-74
2022/12/18 05:17:22;;;;;;;42.27;16.23;;;-7.50;99.90;;;;;;5094876;28;20072;-74
2022/12/18 05:19:47;;;;;;;42.10;15.80;;;-7.50;99.90;;;;;;5094292;28;20028;-74
2022/12/18 05:22:13;;;;;;;41.40;15.57;;;-7.60;99.90;;;;;;5093586;28;20038;-74
2022/12/18 05:24:38;;;;;;;46.57;15.03;;;-7.70;99.90;;;;;;5093252;28;20465;-76
2022/12/18 05:27:04;;;;;;;44.30;14.73;;;-7.70;99.90;;;;;;5093893;28;20454;-74
2022/12/18 05:29:30;;;;;;;45.87;17.53;;;-7.70;99.90;;;;;;5093190;28;20064;-74
2022/12/18 05:31:55;;;;;;;37.20;15.73;;;-7.90;99.90;;;;;;5092312;28;20521;-75
2022/12/18 05:34:21;;;;;;;47.57;16.73;;;-7.80;99.90;;;;;;5093099;28;20040;-74
2022/12/18 05:36:46;;;;;;;47.27;16.30;;;-7.90;99.90;;;;;;5093848;28;20028;-74
2022/12/18 05:39:12;;;;;;;52.00;15.70;;;-7.90;99.90;;;;;;5093480;28;20435;-74
2022/12/18 05:41:38;;;;;;;44.03;16.57;;;-7.90;99.90;;;;;;5093277;28;20028;-74
2022/12/18 05:44:03;;;;;;;46.30;15.53;;;-8.00;99.90;;;;;;5114446;28;20028;-74
2022/12/18 05:46:29;;;;;;;47.13;17.60;;;-8.00;99.90;;;;;;5113543;28;20032;-74
2022/12/18 05:48:54;;;;;;;43.20;15.30;;;-8.00;99.90;;;;;;5105366;28;20031;-74
2022/12/18 05:51:21;;;;;;;48.57;17.10;;;-8.00;99.90;;;;;;5092944;28;20081;-74
2022/12/18 05:53:48;;;;;;;73.60;19.90;;;-8.00;99.90;;;;;;5092532;28;20035;-74
2022/12/18 05:56:17;;;;;;;139.43;33.20;;;-8.00;99.90;;;;;;5093102;28;20449;-74
2022/12/18 05:58:43;;;;;;;95.53;26.33;;;-7.90;99.90;;;;;;5092407;28;20057;-74
2022/12/18 06:01:12;;;;;;;75.07;22.00;;;-8.00;99.90;;;;;;5093273;28;20028;-74
2022/12/18 06:03:37;;;;;;;64.63;19.63;;;-8.00;99.90;;;;;;5092952;28;20024;-74
2022/12/18 06:06:03;;;;;;;66.20;19.63;;;-8.00;99.90;;;;;;5092220;28;20119;-74
2022/12/18 06:08:29;;;;;;;60.50;17.83;;;-8.00;99.90;;;;;;5092669;28;20028;-74
2022/12/18 06:10:55;;;;;;;52.07;16.33;;;-7.90;99.90;;;;;;5110530;28;20024;-74
2022/12/18 06:13:21;;;;;;;51.90;18.00;;;-7.90;99.90;;;;;;5111986;28;20038;-74
2022/12/18 06:15:47;;;;;;;51.43;18.40;;;-7.80;99.90;;;;;;5092022;28;20362;-75
2022/12/18 06:18:12;;;;;;;55.07;17.83;;;-7.70;99.90;;;;;;5091941;28;20051;-74
2022/12/18 06:20:39;;;;;;;59.40;19.70;;;-7.60;99.90;;;;;;5093796;28;20039;-74
2022/12/18 06:23:05;;;;;;;46.90;17.23;;;-7.60;99.90;;;;;;5091961;28;20024;-74
2022/12/18 06:25:31;;;;;;;52.70;18.20;;;-7.60;99.90;;;;;;5093712;28;20063;-74
2022/12/18 06:27:57;;;;;;;44.03;15.73;;;-7.50;99.90;;;;;;5103189;28;20019;-74
2022/12/18 06:30:23;;;;;;;52.63;18.70;;;-7.50;99.90;;;;;;5112688;28;20381;-74
2022/12/18 06:32:49;;;;;;;51.63;17.50;;;-7.40;99.90;;;;;;5113281;28;20089;-74
2022/12/18 06:35:14;;;;;;;47.57;17.57;;;-7.40;99.90;;;;;;5112605;28;20027;-74
2022/12/18 06:37:40;;;;;;;48.27;17.13;;;-7.40;99.90;;;;;;5112638;28;20020;-74
2022/12/18 06:40:06;;;;;;;50.13;17.60;;;-7.40;99.90;;;;;;5111922;28;20028;-74
2022/12/18 06:42:32;;;;;;;58.03;18.43;;;-7.40;99.90;;;;;;5113444;28;20035;-74
2022/12/18 06:44:57;;;;;;;45.57;16.53;;;-7.30;99.90;;;;;;5111835;28;20491;-75
2022/12/18 06:47:23;;;;;;;52.23;17.87;;;-7.30;99.90;;;;;;5095573;28;20028;-72
2022/12/18 06:49:48;;;;;;;52.33;17.83;;;-7.30;99.90;;;;;;5091514;28;20458;-72
2022/12/18 06:52:16;;;;;;;55.43;18.83;;;-7.20;99.90;;;;;;5091918;28;20028;-72
2022/12/18 06:54:41;;;;;;;55.93;18.07;;;-7.20;99.90;;;;;;5104134;28;20062;-74
2022/12/18 06:57:07;;;;;;;58.73;19.73;;;-7.10;99.90;;;;;;5111749;28;20051;-74
2022/12/18 06:59:32;;;;;;;53.20;16.80;;;-7.10;99.90;;;;;;5113040;28;20028;-74
2022/12/18 07:01:58;;;;;;;49.10;15.67;;;-7.10;99.90;;;;;;5110773;28;20066;-74
2022/12/18 07:04:31;;;;;;;45.13;16.73;;;-7.00;99.90;;;;;;5112032;28;20028;-74
2022/12/18 07:06:57;;;;;;;44.57;16.20;;;-7.00;99.90;;;;;;5101293;28;20107;-75
2022/12/18 07:09:23;;;;;;;52.33;16.67;;;-6.90;99.90;;;;;;5092940;28;20473;-75
2022/12/18 07:11:48;;;;;;;47.00;14.97;;;-6.90;99.90;;;;;;5092318;28;20039;-75
2022/12/18 07:14:14;;;;;;;58.67;17.93;;;-6.90;99.90;;;;;;5093026;28;20441;-75
2022/12/18 07:16:40;;;;;;;52.90;17.60;;;-6.90;99.90;;;;;;5091298;28;20147;-75
2022/12/18 07:19:06;;;;;;;51.60;16.97;;;-6.80;99.90;;;;;;5091058;28;20062;-75
2022/12/18 07:21:31;;;;;;;52.23;16.93;;;-6.80;99.90;;;;;;5103862;28;20499;-75
2022/12/18 07:23:57;;;;;;;46.80;15.47;;;-6.70;99.90;;;;;;5112647;28;20092;-75
2022/12/18 07:26:23;;;;;;;49.90;14.97;;;-6.80;99.90;;;;;;5111592;28;20023;-74
2022/12/18 07:28:49;;;;;;;45.87;15.30;;;-6.70;99.90;;;;;;5111353;28;20024;-75
2022/12/18 07:31:18;;;;;;;60.80;17.47;;;-6.70;99.90;;;;;;5112117;28;20457;-74
2022/12/18 07:33:45;;;;;;;45.83;17.17;;;-6.60;99.90;;;;;;5111531;28;20036;-74
2022/12/18 07:36:11;;;;;;;46.77;16.50;;;-6.60;99.90;;;;;;5113039;28;20427;-75
2022/12/18 07:38:37;;;;;;;45.90;15.57;;;-6.60;99.90;;;;;;5101067;28;20081;-75
2022/12/18 07:41:11;;;;;;;50.70;14.83;;;-6.50;99.90;;;;;;5102223;28;20024;-75
2022/12/18 07:43:38;;;;;;;50.83;16.23;;;-6.60;99.90;;;;;;5110911;28;20031;-75
2022/12/18 07:46:04;;;;;;;47.33;16.77;;;-6.50;99.90;;;;;;5100028;28;20023;-74
2022/12/18 07:48:30;;;;;;;44.93;15.70;;;-6.40;99.90;;;;;;5100251;28;20027;-74
2022/12/18 07:51:06;;;;;;;43.20;16.53;;;-6.30;99.90;;;;;;5104135;28;20035;-75
2022/12/18 07:53:33;;;;;;;56.67;17.00;;;-6.30;99.90;;;;;;5108755;28;20111;-75
2022/12/18 07:56:03;;;;;;;53.57;16.00;;;-6.30;99.90;;;;;;5105766;28;20020;-75
2022/12/18 07:58:29;;;;;;;44.13;16.60;;;-6.30;99.90;;;;;;5100106;28;20028;-75
2022/12/18 08:01:09;;;;;;;48.23;16.73;;;-6.20;99.90;;;;;;5099322;28;20488;-75
2022/12/18 08:03:35;;;;;;;45.83;15.37;;;-6.20;99.90;;;;;;5108370;28;20027;-75
2022/12/18 08:06:02;;;;;;;54.13;16.13;;;-6.20;99.90;;;;;;5095248;28;20026;-76
2022/12/18 08:08:29;;;;;;;51.67;17.07;;;-6.00;99.90;;;;;;5102167;28;20024;-75
2022/12/18 08:10:55;;;;;;;47.33;16.00;;;-6.00;99.90;;;;;;5102834;28;20032;-75
2022/12/18 08:13:21;;;;;;;44.37;15.30;;;-6.00;99.90;;;;;;5113180;28;20027;-74
2022/12/18 08:15:55;;;;;;;43.87;15.60;;;-6.00;99.90;;;;;;5112145;28;20034;-75
2022/12/18 08:18:27;;;;;;;53.83;17.23;;;-6.00;99.90;;;;;;5102423;28;20581;-74
2022/12/18 08:20:52;;;;;;;45.60;16.85;;;-6.00;99.90;;;;;;5101492;28;20032;-74
2022/12/18 08:23:18;;;;;;;38.20;15.47;;;-6.00;99.90;;;;;;5110240;28;20031;-74
2022/12/18 08:25:44;;;;;;;50.93;16.33;;;-6.00;99.90;;;;;;5097340;28;20055;-74
2022/12/18 08:28:10;;;;;;;49.33;14.37;;;-5.90;99.90;;;;;;5107778;28;20020;-74
2022/12/18 08:30:35;;;;;;;48.33;16.07;;;-5.80;99.90;;;;;;5103675;28;20522;-75
2022/12/18 08:33:01;;;;;;;49.90;16.80;;;-5.80;99.90;;;;;;5100273;28;20111;-75
2022/12/18 08:35:28;;;;;;;50.23;16.60;;;-5.80;99.90;;;;;;5096543;28;20454;-75
2022/12/18 08:37:53;;;;;;;47.20;16.37;;;-5.70;99.90;;;;;;5113988;28;20031;-75
2022/12/18 08:40:19;;;;;;;46.83;15.87;;;-5.70;99.90;;;;;;5102234;28;20024;-74
2022/12/18 08:45:28;;;;;;;54.47;16.47;;;-5.60;99.90;;;;;;5114363;28;20046;-75
2022/12/18 08:47:54;;;;;;;43.93;15.40;;;-5.70;99.90;;;;;;5103300;28;20031;-74
2022/12/18 08:50:20;;;;;;;49.63;17.77;;;-5.60;99.90;;;;;;5104235;28;20111;-74
2022/12/18 08:52:45;;;;;;;58.53;18.07;;;-5.60;99.90;;;;;;5098852;28;20030;-74
2022/12/18 08:55:11;;;;;;;54.50;18.40;;;-5.60;99.90;;;;;;5104692;28;20032;-75
2022/12/18 08:57:37;;;;;;;51.90;17.00;;;-5.50;99.90;;;;;;5111617;28;20453;-74
2022/12/18 09:00:04;;;;;;;58.80;18.13;;;-5.60;99.90;;;;;;5110963;28;20058;-75
2022/12/18 09:02:29;;;;;;;49.63;16.60;;;-5.50;99.90;;;;;;5110251;28;20044;-74
2022/12/18 09:04:55;;;;;;;44.60;16.00;;;-5.50;99.90;;;;;;5103744;28;20024;-74
2022/12/18 09:07:20;;;;;;;51.43;16.57;;;-5.50;99.90;;;;;;5102866;28;20480;-76
2022/12/18 09:09:46;;;;;;;47.20;15.80;;;-5.40;99.90;;;;;;5105422;28;20026;-74
2022/12/18 09:12:12;;;;;;;52.60;17.23;;;-5.40;99.90;;;;;;5112238;28;20024;-74
2022/12/18 09:14:37;;;;;;;48.97;16.80;;;-5.40;99.90;;;;;;5111219;28;20416;-75
2022/12/18 09:17:03;;;;;;;46.10;17.43;;;-5.50;99.90;;;;;;5100657;28;20052;-75
2022/12/18 09:19:28;;;;;;;53.93;17.23;;;-5.50;99.90;;;;;;5108251;28;20043;-75
2022/12/18 09:21:54;;;;;;;48.83;16.00;;;-5.50;99.90;;;;;;5113051;28;20042;-75
2022/12/18 09:24:22;;;;;;;54.37;17.73;;;-5.40;99.90;;;;;;5110890;28;20023;-75
2022/12/18 09:26:48;;;;;;;46.67;15.93;;;-5.40;99.90;;;;;;5107885;28;20099;-78
2022/12/18 09:29:15;;;;;;;52.33;17.83;;;-5.30;99.90;;;;;;5113417;28;20110;-75
2022/12/18 09:31:41;;;;;;;59.70;19.97;;;-5.30;99.90;;;;;;5095967;28;20433;-75
2022/12/18 09:34:07;;;;;;;51.10;17.23;;;-5.30;99.90;;;;;;5103316;28;20066;-76
2022/12/18 09:36:32;;;;;;;46.20;16.97;;;-5.30;99.90;;;;;;5114859;28;20105;-74
2022/12/18 09:38:58;;;;;;;47.77;16.37;;;-5.40;99.90;;;;;;5099429;28;20020;-75
2022/12/18 09:41:55;;;;;;;41.83;16.50;;;-5.40;99.90;;;;;;5107610;28;20468;-77
2022/12/18 09:44:25;;;;;;;47.80;16.30;;;-5.50;99.90;;;;;;5106554;28;20065;-75
2022/12/18 09:47:04;;;;;;;50.60;17.97;;;-5.50;99.90;;;;;;5109653;28;20426;-75
2022/12/18 09:49:34;;;;;;;48.47;16.43;;;-5.60;99.90;;;;;;5102002;28;20028;-74
2022/12/18 09:52:17;;;;;;;46.73;16.67;;;-5.70;99.90;;;;;;5113601;28;20460;-75
2022/12/18 09:54:47;;;;;;;50.27;16.00;;;-5.60;99.90;;;;;;5101432;28;20081;-75
2022/12/18 09:57:21;;;;;;;55.73;16.80;;;-5.60;99.90;;;;;;5107492;28;20027;-75
2022/12/18 10:00:01;;;;;;;45.57;16.27;;;-5.60;99.90;;;;;;5096037;28;20030;-75
2022/12/18 10:02:31;;;;;;;50.60;17.00;;;-5.50;99.90;;;;;;5103985;28;20067;-74
2022/12/18 10:05:05;;;;;;;50.73;16.97;;;-5.50;99.90;;;;;;5104293;28;20028;-75
2022/12/18 10:08:01;;;;;;;55.13;17.83;;;-5.40;99.90;;;;;;5095757;28;20038;-74
2022/12/18 10:10:31;;;;;;;58.80;18.83;;;-5.40;99.90;;;;;;5097782;28;20032;-75
2022/12/18 10:13:07;;;;;;;54.03;18.53;;;-5.40;99.90;;;;;;5104632;28;20031;-75
2022/12/18 10:15:51;;;;;;;51.20;17.77;;;-5.30;99.90;;;;;;5095322;28;20469;-75
2022/12/18 10:18:19;;;;;;;52.87;17.57;;;-5.30;99.90;;;;;;5105909;28;20039;-75
2022/12/18 10:20:49;;;;;;;54.83;17.80;;;-5.30;99.90;;;;;;5110734;28;20024;-75
2022/12/18 10:23:17;;;;;;;61.60;19.07;;;-5.10;99.90;;;;;;5110682;28;20016;-75
2022/12/18 10:25:55;;;;;;;56.70;18.30;;;-5.10;99.90;;;;;;5107665;28;20469;-74
2022/12/18 10:28:23;;;;;;;52.67;18.87;;;-5.00;99.90;;;;;;5105438;28;20020;-74
2022/12/18 10:30:48;;;;;;;54.97;18.03;;;-5.00;99.90;;;;;;5097305;28;20024;-75
2022/12/18 10:33:21;;;;;;;47.83;17.27;;;-4.90;99.90;;;;;;5113053;28;20056;-75
2022/12/18 10:35:47;;;;;;;;;;;-4.90;99.90;;;;;;5109357;28;20024;-75
2022/12/18 10:38:16;;;;;;;46.27;17.97;;;-4.90;99.90;;;;;;5097879;28;19952;-75
2022/12/18 10:40:48;;;;;;;53.93;18.10;;;-4.80;99.90;;;;;;5109561;28;20015;-74
2022/12/18 10:43:15;;;;;;;47.65;15.80;;;-4.80;99.90;;;;;;5102838;28;20110;-75
2022/12/18 10:45:42;;;;;;;53.43;18.87;;;-4.70;99.90;;;;;;5112809;28;20031;-75
2022/12/18 10:48:21;;;;;;;52.53;19.13;;;-4.60;99.90;;;;;;5108371;28;20045;-76
2022/12/18 10:50:49;;;;;;;51.20;18.60;;;-4.50;99.90;;;;;;5103148;28;20051;-75
2022/12/18 10:53:36;;;;;;;53.87;18.13;;;-4.50;99.90;;;;;;5111631;28;20074;-75
2022/12/18 10:56:04;;;;;;;55.40;18.83;;;-4.50;99.90;;;;;;5095854;28;20377;-75
2022/12/18 10:58:34;;;;;;;46.93;17.90;;;-4.40;99.90;;;;;;5103837;28;20032;-74
2022/12/18 11:01:07;;;;;;;53.33;18.27;;;-4.40;99.90;;;;;;5107031;28;20028;-74
2022/12/18 11:03:40;;;;;;;51.50;19.67;;;-4.40;99.90;;;;;;5111866;28;20053;-75
2022/12/18 11:06:11;;;;;;;51.57;18.43;;;-4.40;99.90;;;;;;5098427;28;20085;-76
2022/12/18 11:08:37;;;;;;;63.07;19.47;;;-4.40;99.90;;;;;;5094950;28;20048;-75
2022/12/18 11:11:07;;;;;;;61.67;19.73;;;-4.30;99.90;;;;;;5094786;28;20055;-75
2022/12/18 11:13:33;;;;;;;61.63;19.77;;;-4.30;99.90;;;;;;5109666;28;20456;-75
2022/12/18 11:15:59;;;;;;;56.57;20.37;;;-4.30;99.90;;;;;;5107314;28;20111;-75
2022/12/18 11:18:35;;;;;;;56.07;19.30;;;-4.30;99.90;;;;;;5105594;28;20079;-75
2022/12/18 11:21:10;;;;;;;61.10;18.77;;;-4.30;99.90;;;;;;5104087;28;20444;-75
2022/12/18 11:23:44;;;;;;;59.60;20.67;;;-4.20;99.90;;;;;;5103261;28;20032;-75
2022/12/18 11:26:10;;;;;;;58.63;20.87;;;-4.20;99.90;;;;;;5109743;28;20370;-75
2022/12/18 11:28:40;;;;;;;58.30;19.73;;;-4.10;99.90;;;;;;5106110;28;20076;-76
2022/12/18 11:31:27;;;;;;;58.83;19.00;;;-4.00;99.90;;;;;;5110971;28;20032;-76
2022/12/18 11:34:09;;;;;;;56.47;19.30;;;-3.90;99.90;;;;;;5091318;28;20461;-76
2022/12/18 11:36:46;;;;;;;57.15;19.08;;;-3.70;99.90;;;;;;5095929;28;20033;-72
2022/12/18 11:39:38;;;;;;;53.00;18.97;;;-3.50;99.90;;;;;;5105506;28;20034;-75
2022/12/18 11:42:22;;;;;;;37.78;13.68;;;-3.50;99.90;;;;;;5096141;28;20024;-75
2022/12/18 11:44:52;;;;;;;54.90;19.57;;;-3.40;99.90;;;;;;5100842;28;20039;-75
2022/12/18 11:47:26;;;;;;;55.27;19.63;;;-3.40;99.90;;;;;;5110080;28;20032;-75
2022/12/18 11:49:55;;;;;;;49.73;17.57;;;-3.40;99.90;;;;;;5099066;28;20054;-74
2022/12/18 11:52:31;;;;;;;44.90;16.80;;;-3.40;99.90;;;;;;5107228;28;20602;-73
2022/12/18 11:55:01;;;;;;;44.07;16.67;;;-3.40;99.90;;;;;;5108716;28;20032;-73
2022/12/18 11:57:26;;;;;;;50.90;18.03;;;-3.40;99.90;;;;;;5114800;28;20092;-73
2022/12/18 12:00:04;;;;;;;46.87;18.23;;;-3.30;99.90;;;;;;5098702;28;20524;-73
2022/12/18 12:03:08;;;;;;;48.60;18.67;;;-3.30;99.90;;;;;;5105798;28;20028;-73
2022/12/18 12:05:59;;;;;;;36.63;15.43;;;-3.20;99.90;;;;;;5111202;28;20027;-73
2022/12/18 12:08:37;;;;;;;55.60;18.87;;;-3.20;99.90;;;;;;5103975;28;20542;-72
2022/12/18 12:11:19;;;;;;;44.23;16.27;;;-3.20;99.90;;;;;;5114033;28;20392;-72
2022/12/18 12:14:22;;;;;;;46.43;17.33;;;-3.20;99.90;;;;;;5097739;28;20114;-73
2022/12/18 12:17:06;;;;;;;52.37;18.70;;;-3.10;99.90;;;;;;5102821;28;20048;-75
2022/12/18 12:19:50;;;;;;;47.53;17.23;;;-3.00;99.90;;;;;;5113766;28;20057;-75
2022/12/18 12:22:27;;;;;;;45.43;15.80;;;-3.00;99.90;;;;;;5107067;28;20047;-75
2022/12/18 12:25:25;;;;;;;57.73;20.03;;;-3.00;99.90;;;;;;5106947;28;20139;-75
2022/12/18 12:28:16;;;;;;;43.23;17.00;;;-3.00;99.90;;;;;;5097903;28;20035;-74
2022/12/18 12:31:10;;;;;;;53.42;19.00;;;-2.90;99.90;;;;;;5103547;28;20024;-75
2022/12/18 12:33:49;;;;;;;53.43;18.90;;;-2.90;99.90;;;;;;5095092;28;20050;-75
2022/12/18 12:36:26;;;;;;;54.50;19.80;;;-2.80;99.90;;;;;;5101483;28;20016;-75
2022/12/18 12:38:59;;;;;;;49.43;18.07;;;-2.70;99.90;;;;;;5106926;28;20030;-75
2022/12/18 12:44:26;;;;;;;56.43;20.13;;;-2.70;99.90;;;;;;5107825;28;20384;-75
2022/12/18 12:46:57;;;;;;;59.10;20.20;;;-2.70;99.90;;;;;;5107514;28;20031;-74
2022/12/18 12:49:27;;;;;;;49.60;18.90;;;-2.80;99.90;;;;;;5099279;28;20023;-75